Pagina principală
METAR-TAF:

METAR-TAF

Aeroporturi :

Jefferson County International Airport

Port Townsend, Washington, Statele Unite ale Americii

Latitudine: 48-03-14N, longitudine: 122-48-38W, elevație: 33 m

Observații meteo curente

Raportul a fost făcut în urmă cu 38 de minute, la 20:35 UTC
Vânt 6 kt din direcții variabile cu rafale de până la 11 kt
Temperatură 14°C
Umiditate 63%
Presiune 1017 hPa
Vizibilitate: 16.1 km
Cer senin

METAR: K0S9 162035Z AUTO VRB06G11KT 10SM CLR 14/07 A3004 RMK AO2

Ora: 14:13 (21:13 UTC)


TAF: lipsă

Observații și prognoze meteo pentru peste 4.000 de aeroporturi (rapoarte METAR și TAF).

Stațiile disponibile sunt reprezentate pe hartă prin puncte galbene și roșii.

Țineți indicatorul mouse-ului pe punctul dorit pentru a vedea denumirea stației.

Apoi, faceți clic pentru a vedea observațiile și prognozele meteorologice.

Pentru a schimba harta: Pentru mărire, faceți clic pe butoanele verzi cu cruce neagră; pentru micșorare, pe butonul verde cu o liniuță; pentru hărți învecinate, pe săgețile verzi.


METAR-TAF: